Time;durP1;ratioP1;P1;durP2;ratioP2;P2;SDS_P1;SDS_P2;PMS_P1;PMS_P2;Temp;Humidity;BMP_temperature;BMP_pressure;BME280_temperature;BME280_humidity;BME280_pressure;Samples;Min_cycle;Max_cycle;Signal;HPM_P1;HPM_P2
2022/04/25 00:01:36;;;;;;;;;;;;;;;8.05;100.00;100953.38;2614279;36;20593;-51
2022/04/25 00:04:05;;;;;;;;;;;;;;;8.10;100.00;100953.03;2613657;31;19946;-56
2022/04/25 00:06:33;;;;;;;;;;;;;;;8.13;100.00;100946.59;2612581;36;20037;-51
2022/04/25 00:09:01;;;;;;;;;;;;;;;8.07;100.00;100948.75;2613562;36;19946;-50
2022/04/25 00:11:29;;;;;;;;;;;;;;;8.09;100.00;100955.81;2613468;36;19954;-49
2022/04/25 00:13:58;;;;;;;;;;;;;;;8.00;100.00;100955.53;2612907;36;20092;-50
2022/04/25 00:16:26;;;;;;;;;;;;;;;7.89;100.00;100961.72;2612843;36;19954;-50
2022/04/25 00:18:56;;;;;;;;;;;;;;;7.82;100.00;100951.59;2613024;36;19981;-52
2022/04/25 00:21:25;;;;;;;;;;;;;;;7.87;100.00;100969.00;2613063;36;19955;-49
2022/04/25 00:23:53;;;;;;;;;;;;;;;7.88;100.00;100965.38;2613196;36;19946;-52
2022/04/25 00:26:21;;;;;;;;;;;;;;;7.87;100.00;100968.16;2613036;36;20535;-50
2022/04/25 00:28:49;;;;;;;;;;;;;;;7.79;100.00;100962.53;2613447;36;20049;-51
2022/04/25 00:31:16;;;;;;;;;;;;;;;7.80;100.00;100964.25;2613153;36;20065;-49
2022/04/25 00:33:45;;;;;;;;;;;;;;;7.80;100.00;100961.56;2613702;31;20029;-49
2022/04/25 00:36:15;;;;;;;;;;;;;;;7.76;100.00;100970.78;2613003;31;20077;-49
2022/04/25 00:38:43;;;;;;;;;;;;;;;7.69;100.00;100970.41;2612851;36;20045;-54
2022/04/25 00:41:11;;;;;;;;;;;;;;;7.80;100.00;100972.28;2613546;36;19966;-49
2022/04/25 00:43:39;;;;;;;;;;;;;;;7.80;100.00;100969.59;2613210;36;20053;-54
2022/04/25 00:46:08;;;;;;;;;;;;;;;7.80;100.00;100961.56;2612280;36;19950;-50
2022/04/25 00:48:35;;;;;;;;;;;;;;;7.80;100.00;100967.78;2605973;36;20078;-48
2022/04/25 00:51:03;;;;;;;;;;;;;;;7.80;100.00;100962.44;2613479;36;20026;-54
2022/04/25 00:53:34;;;;;;;;;;;;;;;7.74;100.00;100956.66;2612870;36;20086;-52
2022/04/25 00:56:02;;;;;;;;;;;;;;;7.70;100.00;100959.59;2613111;36;20037;-48
2022/04/25 00:58:31;;;;;;;;;;;;;;;7.75;100.00;100961.06;2613622;36;19986;-52
2022/04/25 01:00:59;;;;;;;;;;;;;;;7.77;100.00;100959.13;2612421;36;19961;-51
2022/04/25 01:03:27;;;;;;;;;;;;;;;7.87;100.00;100946.72;2613329;31;20029;-53
2022/04/25 01:05:55;;;;;;;;;;;;;;;7.69;100.00;100957.88;2613281;36;20030;-49
2022/04/25 01:08:23;;;;;;;;;;;;;;;7.70;100.00;100966.78;2612406;36;20022;-50
2022/04/25 01:10:54;;;;;;;;;;;;;;;7.76;100.00;100960.06;2613270;36;20077;-49
2022/04/25 01:13:21;;;;;;;;;;;;;;;7.70;100.00;100962.25;2613677;36;20054;-49
2022/04/25 01:15:50;;;;;;;;;;;;;;;7.67;100.00;100961.63;2612928;36;20037;-50
2022/04/25 01:18:17;;;;;;;;;;;;;;;7.69;100.00;100960.53;2613343;36;20074;-51
2022/04/25 01:20:45;;;;;;;;;;;;;;;7.77;100.00;100959.13;2613412;36;19946;-50
2022/04/25 01:28:41;;;;;;;;;;;;;;;7.80;100.00;100950.84;2611203;36;19956;-49
2022/04/25 01:31:11;;;;;;;;;;;;;;;7.81;100.00;100955.25;2611503;36;20073;-49
2022/04/25 01:33:39;;;;;;;;;;;;;;;7.81;100.00;100952.56;2611743;36;20432;-51
2022/04/25 01:36:07;;;;;;;;;;;;;;;7.86;100.00;100955.72;2612135;31;20417;-54
2022/04/25 01:38:38;;;;;;;;;;;;;;;7.86;100.00;100945.88;2612261;36;20061;-51
2022/04/25 01:41:06;;;;;;;;;;;;;;;7.86;100.00;100940.53;2613075;36;21256;-51
2022/04/25 01:43:37;;;;;;;;;;;;;;;7.78;100.00;100955.47;2614364;36;20141;-51
2022/04/25 01:46:06;;;;;;;;;;;;;;;7.76;100.00;100954.72;2612388;36;20038;-51
2022/04/25 01:48:34;;;;;;;;;;;;;;;7.68;100.00;100947.25;2613083;36;19950;-51
2022/04/25 01:51:02;;;;;;;;;;;;;;;7.67;100.00;100946.41;2612964;36;20007;-54
2022/04/25 01:53:30;;;;;;;;;;;;;;;7.66;100.00;100944.72;2612792;36;20034;-52
2022/04/25 01:56:01;;;;;;;;;;;;;;;7.59;100.00;100942.59;2612773;36;20045;-52
2022/04/25 01:58:30;;;;;;;;;;;;;;;7.59;100.00;100946.13;2613495;31;19946;-52
2022/04/25 02:00:58;;;;;;;;;;;;;;;7.62;100.00;100945.91;2612240;36;19954;-51
2022/04/25 02:03:26;;;;;;;;;;;;;;;7.60;100.00;100953.22;2613154;36;20004;-50
2022/04/25 02:05:54;;;;;;;;;;;;;;;7.52;100.00;100942.19;2613069;36;20030;-50
2022/04/25 02:08:22;;;;;;;;;;;;;;;7.56;100.00;100942.84;2612668;36;20452;-53
2022/04/25 02:13:33;;;;;;;;;;;;;;;7.41;100.00;100940.31;2612671;36;19947;-50
2022/04/25 02:16:01;;;;;;;;;;;;;;;7.47;100.00;100941.69;2612440;36;20036;-51
2022/04/25 02:18:29;;;;;;;;;;;;;;;7.42;100.00;100931.34;2613027;36;19997;-51
2022/04/25 02:20:57;;;;;;;;;;;;;;;7.35;100.00;100941.63;2611969;36;19951;-51
2022/04/25 02:23:25;;;;;;;;;;;;;;;7.34;100.00;100945.25;2612207;36;20031;-50
2022/04/25 02:25:53;;;;;;;;;;;;;;;7.36;100.00;100939.78;2612323;36;20483;-51
2022/04/25 02:28:21;;;;;;;;;;;;;;;7.41;100.00;100931.44;2611905;36;19954;-50
2022/04/25 02:30:52;;;;;;;;;;;;;;;7.47;100.00;100931.00;2611674;36;19947;-50
2022/04/25 02:33:20;;;;;;;;;;;;;;;7.52;100.00;100931.47;2612932;36;19950;-52
2022/04/25 02:35:49;;;;;;;;;;;;;;;7.41;100.00;100944.84;2612863;36;20527;-56
2022/04/25 02:38:17;;;;;;;;;;;;;;;7.34;100.00;100945.25;2612580;36;19946;-52
2022/04/25 02:40:45;;;;;;;;;;;;;;;7.31;100.00;100950.84;2612795;36;19946;-49
2022/04/25 02:43:13;;;;;;;;;;;;;;;7.27;100.00;100946.69;2613145;36;20042;-50
2022/04/25 02:45:41;;;;;;;;;;;;;;;7.23;100.00;100941.66;2612331;36;20069;-49
2022/04/25 02:48:12;;;;;;;;;;;;;;;7.21;100.00;100948.97;2612064;36;19950;-56
2022/04/25 02:50:40;;;;;;;;;;;;;;;7.16;100.00;100949.31;2594764;36;19946;-54
2022/04/25 02:53:08;;;;;;;;;;;;;;;7.14;100.00;100946.75;2613176;36;20058;-54
2022/04/25 02:55:36;;;;;;;;;;;;;;;7.25;100.00;100953.13;2612436;36;19951;-56
2022/04/25 02:58:04;;;;;;;;;;;;;;;7.28;100.00;100956.44;2612068;36;19946;-49
2022/04/25 03:00:32;;;;;;;;;;;;;;;7.28;100.00;100948.41;2612835;36;20559;-55
2022/04/25 03:03:00;;;;;;;;;;;;;;;7.28;100.00;100948.41;2612918;36;19958;-52
2022/04/25 03:05:31;;;;;;;;;;;;;;;7.27;100.00;100945.84;2613246;36;20026;-51
2022/04/25 03:07:59;;;;;;;;;;;;;;;7.29;100.00;100952.78;2613737;36;19950;-51
2022/04/25 03:10:27;;;;;;;;;;;;;;;7.37;100.00;100954.91;2613607;36;20605;-55
2022/04/25 03:12:55;;;;;;;;;;;;;;;7.33;100.00;100948.94;2614245;36;20507;-53
2022/04/25 03:15:23;;;;;;;;;;;;;;;7.53;100.00;100959.97;2613270;31;20428;-51
2022/04/25 03:17:51;;;;;;;;;;;;;;;7.46;100.00;100951.53;2614089;31;19981;-49
2022/04/25 03:20:19;;;;;;;;;;;;;;;7.53;100.00;100959.97;2613498;36;19977;-50
2022/04/25 03:22:50;;;;;;;;;;;;;;;7.48;100.00;100965.69;2614059;31;20026;-49
2022/04/25 03:25:18;;;;;;;;;;;;;;;7.51;100.00;100967.28;2613732;36;19955;-50
2022/04/25 03:27:46;;;;;;;;;;;;;;;7.57;100.00;100956.13;2613964;36;20001;-48
2022/04/25 03:30:14;;;;;;;;;;;;;;;7.60;100.00;100960.41;2613220;36;19966;-49
2022/04/25 03:32:45;;;;;;;;;;;;;;;7.62;100.00;100963.81;2613553;36;19946;-53
2022/04/25 03:35:13;;;;;;;;;;;;;;;7.65;100.00;100969.78;2614017;36;19950;-51
2022/04/25 03:37:41;;;;;;;;;;;;;;;7.66;100.00;100963.47;2613468;36;20450;-50
2022/04/25 03:40:12;;;;;;;;;;;;;;;7.74;100.00;100964.72;2613384;36;20533;-56
2022/04/25 03:42:41;;;;;;;;;;;;;;;7.78;100.00;100971.56;2612251;36;19946;-49
2022/04/25 03:45:10;;;;;;;;;;;;;;;7.85;100.00;100972.81;2614004;31;20422;-52
2022/04/25 03:47:41;;;;;;;;;;;;;;;7.89;100.00;100979.63;2615305;31;20504;-51
2022/04/25 03:50:10;;;;;;;;;;;;;;;7.96;100.00;100970.16;2612936;36;20078;-54
2022/04/25 03:52:39;;;;;;;;;;;;;;;7.90;100.00;100978.66;2613527;36;19966;-49
2022/04/25 03:57:51;;;;;;;;;;;;;;;7.92;100.00;100982.09;2613790;36;19951;-53
2022/04/25 04:00:19;;;;;;;;;;;;;;;7.98;100.00;100986.97;2613532;36;19950;-49
2022/04/25 04:02:47;;;;;;;;;;;;;;;8.01;100.00;100985.88;2613322;36;20033;-51
2022/04/25 04:05:15;;;;;;;;;;;;;;;7.97;100.00;100976.38;2613354;36;19989;-54
2022/04/25 04:07:44;;;;;;;;;;;;;;;7.98;100.00;100989.66;2613593;36;20090;-51
2022/04/25 04:10:12;;;;;;;;;;;;;;;8.01;100.00;100992.13;2613540;36;19966;-53
2022/04/25 04:12:40;;;;;;;;;;;;;;;8.08;100.00;100992.47;2613048;36;20562;-51
2022/04/25 04:15:12;;;;;;;;;;;;;;;8.17;100.00;100990.94;2612980;36;20481;-55
2022/04/25 04:17:40;;;;;;;;;;;;;;;8.25;100.00;100985.84;2612456;36;19954;-50
2022/04/25 04:20:09;;;;;;;;;;;;;;;8.18;100.00;100990.81;2613263;36;20081;-51
2022/04/25 04:22:37;;;;;;;;;;;;;;;8.21;100.00;100987.03;2612217;36;19962;-51
2022/04/25 04:25:06;;;;;;;;;;;;;;;8.21;100.00;100989.72;2612561;36;20086;-52
2022/04/25 04:27:34;;;;;;;;;;;;;;;8.25;100.00;100981.31;2613672;31;20427;-52
2022/04/25 04:30:05;;;;;;;;;;;;;;;8.10;100.00;100992.38;2612686;36;20081;-53
2022/04/25 04:32:38;;;;;;;;;;;;;;;8.22;100.00;100986.09;2612656;36;19981;-55
2022/04/25 04:35:08;;;;;;;;;;;;;;;8.23;100.00;100985.13;2612314;36;19977;-51
2022/04/25 04:37:36;;;;;;;;;;;;;;;8.29;100.00;100984.63;2613658;36;20101;-50
2022/04/25 04:42:46;;;;;;;;;;;;;;;8.24;100.00;100993.03;2613680;36;19958;-51
2022/04/25 04:45:15;;;;;;;;;;;;;;;8.29;100.00;101000.72;2612570;36;19946;-54
2022/04/25 04:47:45;;;;;;;;;;;;;;;8.41;100.00;100994.41;2612910;36;19951;-50
2022/04/25 04:50:17;;;;;;;;;;;;;;;8.21;100.00;101014.69;2612688;36;20049;-50
2022/04/25 04:52:45;;;;;;;;;;;;;;;8.19;100.00;101021.19;2612869;36;19957;-55
2022/04/25 04:55:14;;;;;;;;;;;;;;;8.30;100.00;101015.81;2613643;36;19951;-56
2022/04/25 04:57:42;;;;;;;;;;;;;;;8.20;100.00;101025.53;2612841;36;19947;-51
2022/04/25 05:00:11;;;;;;;;;;;;;;;8.23;100.00;101028.88;2613486;31;19950;-49
2022/04/25 05:02:39;;;;;;;;;;;;;;;8.26;100.00;101035.84;2613808;31;20376;-56
2022/04/25 05:05:11;;;;;;;;;;;;;;;8.37;100.00;101021.59;2613520;36;19962;-52
2022/04/25 05:07:39;;;;;;;;;;;;;;;8.21;100.00;101038.84;2613684;36;19946;-52
2022/04/25 05:10:07;;;;;;;;;;;;;;;8.19;100.00;101038.09;2612799;36;20066;-52
2022/04/25 05:12:45;;;;;;;;;;;;;;;8.22;100.00;101045.91;2613076;36;19962;-52
2022/04/25 05:15:13;;;;;;;;;;;;;;;8.15;100.00;101047.34;2613214;36;19950;-50
2022/04/25 05:17:41;;;;;;;;;;;;;;;8.05;100.00;101051.69;2613666;31;19950;-50
2022/04/25 05:20:12;;;;;;;;;;;;;;;8.14;100.00;101047.47;2612895;36;19950;-57
2022/04/25 05:22:44;;;;;;;;;;;;;;;8.16;100.00;101043.72;2612147;31;19955;-52
2022/04/25 05:25:14;;;;;;;;;;;;;;;8.17;100.00;101050.78;2613623;36;19947;-57
2022/04/25 05:27:42;;;;;;;;;;;;;;;8.31;100.00;101051.56;2613481;36;19950;-51
2022/04/25 05:30:10;;;;;;;;;;;;;;;8.19;100.00;101043.47;2612481;31;19953;-54
2022/04/25 05:32:46;;;;;;;;;;;;;;;8.28;100.00;101047.28;2605854;36;20053;-54
2022/04/25 05:35:17;;;;;;;;;;;;;;;8.04;100.00;101050.84;2613567;36;19977;-50
2022/04/25 05:37:45;;;;;;;;;;;;;;;8.22;100.00;101048.59;2613696;36;20065;-53
2022/04/25 05:40:14;;;;;;;;;;;;;;;8.17;100.00;101060.63;2611705;31;20402;-52
2022/04/25 05:42:43;;;;;;;;;;;;;;;8.12;100.00;101058.31;2613729;36;20455;-51
2022/04/25 05:45:12;;;;;;;;;;;;;;;8.27;100.00;101055.44;2613132;36;20428;-58
2022/04/25 05:47:40;;;;;;;;;;;;;;;8.20;100.00;101065.75;2612833;36;19947;-52
2022/04/25 05:52:53;;;;;;;;;;;;;;;8.13;100.00;101072.59;2613324;36;19953;-50
2022/04/25 05:55:21;;;;;;;;;;;;;;;8.10;100.00;101087.06;2612740;31;20412;-50
2022/04/25 05:57:50;;;;;;;;;;;;;;;8.02;100.00;101084.09;2613693;36;20033;-52
2022/04/25 06:00:18;;;;;;;;;;;;;;;8.06;100.00;101075.69;2612116;36;19953;-53
2022/04/25 06:02:47;;;;;;;;;;;;;;;8.14;100.00;101079.63;2611412;36;19997;-53
2022/04/25 06:05:15;;;;;;;;;;;;;;;8.16;100.00;101081.25;2613215;36;20042;-56
2022/04/25 06:07:45;;;;;;;;;;;;;;;7.98;100.00;101085.28;2612824;36;20041;-52
2022/04/25 06:10:16;;;;;;;;;;;;;;;8.06;100.00;101081.06;2612516;36;19972;-57
2022/04/25 06:12:45;;;;;;;;;;;;;;;8.05;100.00;101087.41;2613477;36;19974;-57
2022/04/25 06:15:14;;;;;;;;;;;;;;;7.99;100.00;101090.53;2613002;36;19950;-48
2022/04/25 06:17:42;;;;;;;;;;;;;;;8.10;100.00;101094.22;2612931;36;19954;-51
2022/04/25 06:20:13;;;;;;;;;;;;;;;8.16;100.00;101100.00;2613702;36;20684;-50
2022/04/25 06:22:41;;;;;;;;;;;;;;;8.11;100.00;101095.97;2611040;36;20535;-49
2022/04/25 06:25:09;;;;;;;;;;;;;;;8.35;100.00;101099.47;2606256;36;20050;-50
2022/04/25 06:27:40;;;;;;;;;;;;;;;8.40;100.00;101105.34;2609310;36;20058;-57
2022/04/25 06:30:09;;;;;;;;;;;;;;;8.33;100.00;101104.13;2611606;36;20629;-50
2022/04/25 06:32:37;;;;;;;;;;;;;;;8.17;100.00;101104.41;2605039;31;19951;-53
2022/04/25 06:35:08;;;;;;;;;;;;;;;8.23;100.00;101108.47;2612048;36;20005;-53
2022/04/25 06:37:36;;;;;;;;;;;;;;;8.08;100.00;101110.44;2611834;36;19946;-53
2022/04/25 06:40:04;;;;;;;;;;;;;;;8.19;100.00;101115.03;2611732;36;20538;-51
2022/04/25 06:42:32;;;;;;;;;;;;;;;8.27;100.00;101115.28;2606523;36;19954;-54
2022/04/25 06:45:03;;;;;;;;;;;;;;;8.24;100.00;101112.84;2612837;36;20030;-51
2022/04/25 06:47:31;;;;;;;;;;;;;;;8.37;100.00;101118.13;2611279;36;19954;-51
2022/04/25 06:49:59;;;;;;;;;;;;;;;8.52;100.00;101119.69;2611394;36;19950;-51
2022/04/25 06:52:26;;;;;;;;;;;;;;;8.44;100.00;101126.59;2611992;36;21138;-53
2022/04/25 06:54:55;;;;;;;;;;;;;;;8.38;100.00;101114.50;2612737;36;20445;-55
2022/04/25 06:57:22;;;;;;;;;;;;;;;8.41;100.00;101127.69;2611270;31;20061;-54
2022/04/25 06:59:50;;;;;;;;;;;;;;;8.50;100.00;101121.63;2611206;36;20085;-58
2022/04/25 07:02:21;;;;;;;;;;;;;;;8.59;100.00;101120.94;2611963;36;20061;-52
2022/04/25 07:04:49;;;;;;;;;;;;;;;8.74;100.00;101123.41;2612992;36;20846;-57
2022/04/25 07:07:17;;;;;;;;;;;;;;;8.73;100.00;101127.94;2613063;36;19958;-56
2022/04/25 07:09:45;;;;;;;;;;;;;;;8.76;100.00;101126.88;2613089;36;20251;-52
2022/04/25 07:12:13;;;;;;;;;;;;;;;8.62;100.00;101122.53;2612978;36;19989;-54
2022/04/25 07:14:41;;;;;;;;;;;;;;;8.80;100.00;101128.31;2613285;36;19955;-51
2022/04/25 07:17:09;;;;;;;;;;;;;;;9.01;100.00;101119.56;2612998;36;20057;-51
2022/04/25 07:19:41;;;;;;;;;;;;;;;8.68;100.00;101124.75;2612430;36;19958;-51
2022/04/25 07:30:14;;;;;;;;;;;;;;;8.91;100.00;101125.66;2612677;36;19946;-53
2022/04/25 07:32:42;;;;;;;;;;;;;;;9.15;100.00;101129.25;2612180;36;19946;-53
2022/04/25 07:35:12;;;;;;;;;;;;;;;9.34;100.00;101121.44;2612922;36;19958;-52
2022/04/25 07:37:41;;;;;;;;;;;;;;;9.44;100.00;101108.97;2612193;36;19946;-53
2022/04/25 07:40:09;;;;;;;;;;;;;;;9.59;100.00;101114.13;2611380;31;19950;-55
2022/04/25 07:42:38;;;;;;;;;;;;;;;9.42;100.00;101113.63;2605996;36;20076;-55
2022/04/25 07:45:06;;;;;;;;;;;;;;;9.35;100.00;101128.53;2607018;36;19951;-54
2022/04/25 07:47:34;;;;;;;;;;;;;;;9.20;100.00;101122.53;2612766;36;19965;-55
2022/04/25 07:50:02;;;;;;;;;;;;;;;9.11;100.00;101129.50;2612952;36;20028;-50
2022/04/25 07:52:33;;;;;;;;;;;;;;;9.13;100.00;101134.75;2611388;36;19947;-55
2022/04/25 07:55:01;;;;;;;;;;;;;;;9.09;100.00;101131.44;2613197;36;20042;-57
2022/04/25 07:57:29;;;;;;;;;;;;;;;9.08;100.00;101127.06;2612302;36;20061;-56
2022/04/25 07:59:57;;;;;;;;;;;;;;;8.89;100.00;101140.16;2612941;36;19946;-56
2022/04/25 08:02:25;;;;;;;;;;;;;;;8.87;100.00;101150.19;2611716;36;20131;-54
2022/04/25 08:04:53;;;;;;;;;;;;;;;8.81;100.00;101147.97;2612897;36;20069;-55
2022/04/25 08:07:22;;;;;;;;;;;;;;;8.70;100.00;101154.13;2613128;36;20041;-54
2022/04/25 08:09:53;;;;;;;;;;;;;;;8.74;100.00;101156.47;2612210;36;20068;-53
2022/04/25 08:20:23;;;;;;;;;;;;;;;9.17;100.00;101159.50;2612163;36;20420;-51
2022/04/25 08:22:51;;;;;;;;;;;;;;;9.51;100.00;101154.16;2612705;36;20130;-54
2022/04/25 08:25:22;;;;;;;;;;;;;;;9.59;100.00;101162.50;2612566;36;20333;-56
2022/04/25 08:27:50;;;;;;;;;;;;;;;9.57;100.00;101162.59;2612356;31;19947;-55
2022/04/25 08:30:19;;;;;;;;;;;;;;;9.58;100.00;101166.97;2612614;36;20058;-54
2022/04/25 08:32:47;;;;;;;;;;;;;;;9.57;100.00;101159.03;2612187;36;19954;-52
2022/04/25 08:35:15;;;;;;;;;;;;;;;9.40;100.00;101169.31;2612690;36;20033;-55
2022/04/25 08:37:44;;;;;;;;;;;;;;;9.25;100.00;101170.53;2613437;36;20016;-50
2022/04/25 08:40:12;;;;;;;;;;;;;;;9.24;100.00;101174.19;2611764;31;19950;-52
2022/04/25 08:42:44;;;;;;;;;;;;;;;9.27;100.00;101174.78;2613232;36;19954;-52
2022/04/25 08:45:13;;;;;;;;;;;;;;;9.40;100.00;101173.84;2606136;36;19954;-55
2022/04/25 08:47:42;;;;;;;;;;;;;;;9.47;100.00;101162.47;2612700;36;20038;-52
2022/04/25 08:50:10;;;;;;;;;;;;;;;9.42;100.00;101171.88;2613067;36;20030;-52
2022/04/25 08:52:40;;;;;;;;;;;;;;;9.53;100.00;101171.03;2606884;36;20034;-51
2022/04/25 08:55:09;;;;;;;;;;;;;;;9.76;100.00;101175.44;2612811;31;19938;-53
2022/04/25 08:57:37;;;;;;;;;;;;;;;9.91;100.00;101183.22;2612589;36;20072;-53
2022/04/25 09:00:09;;;;;;;;;;;;;;;10.09;100.00;101187.13;2612606;31;19969;-52
2022/04/25 09:02:38;;;;;;;;;;;;;;;9.78;100.00;101189.59;2613152;36;20382;-49
2022/04/25 09:05:06;;;;;;;;;;;;;;;9.67;100.00;101192.28;2613498;36;20442;-48
2022/04/25 09:07:37;;;;;;;;;;;;;;;9.71;100.00;101192.91;2612179;36;20432;-52
2022/04/25 09:10:08;;;;;;;;;;;;;;;9.85;100.00;101199.84;2612210;36;20063;-49
2022/04/25 09:12:36;;;;;;;;;;;;;;;9.97;100.00;101204.25;2612543;36;19973;-52
2022/04/25 09:15:05;;;;;;;;;;;;;;;9.69;100.00;101206.47;2612262;36;19958;-51
2022/04/25 09:17:37;;;;;;;;;;;;;;;9.59;100.00;101209.00;2613192;36;19950;-54
2022/04/25 09:20:05;;;;;;;;;;;;;;;9.58;100.00;101209.13;2611935;31;19953;-53
2022/04/25 09:22:34;;;;;;;;;;;;;;;9.69;100.00;101209.16;2610208;36;20102;-55
2022/04/25 09:25:09;;;;;;;;;;;;;;;9.62;100.00;101210.63;2611911;36;20077;-52
2022/04/25 09:27:37;;;;;;;;;;;;;;;9.82;100.00;101217.94;2612653;36;20491;-54
2022/04/25 09:30:16;;;;;;;;;;;;;;;9.80;100.00;101219.91;2612168;36;19953;-52
2022/04/25 09:32:47;;;;;;;;;;;;;;;9.70;100.00;101228.81;2612546;36;19947;-56
2022/04/25 09:35:28;;;;;;;;;;;;;;;9.49;100.00;101228.69;2610346;36;19961;-51
2022/04/25 09:37:57;;;;;;;;;;;;;;;9.32;100.00;101225.47;2611604;36;19958;-53
2022/04/25 09:40:26;;;;;;;;;;;;;;;8.98;100.00;101232.56;2610106;36;20430;-56
2022/04/25 09:43:05;;;;;;;;;;;;;;;8.99;100.00;101232.44;2611495;36;20005;-51
2022/04/25 09:45:34;;;;;;;;;;;;;;;9.05;100.00;101229.28;2611932;36;19951;-52
2022/04/25 09:48:06;;;;;;;;;;;;;;;8.99;100.00;101227.09;2610861;36;19973;-51
2022/04/25 09:50:34;;;;;;;;;;;;;;;8.91;100.00;101237.56;2626416;36;19954;-52
2022/04/25 09:53:03;;;;;;;;;;;;;;;8.94;100.00;101237.31;2606222;36;20362;-51
2022/04/25 09:55:32;;;;;;;;;;;;;;;9.24;100.00;101244.00;2609051;36;20124;-53
2022/04/25 09:58:00;;;;;;;;;;;;;;;9.65;100.00;101234.56;2610507;36;19954;-53
2022/04/25 10:00:33;;;;;;;;;;;;;;;10.12;100.00;101234.44;2604882;36;19969;-53
2022/04/25 10:03:01;;;;;;;;;;;;;;;10.35;100.00;101243.38;2611035;36;20410;-56
2022/04/25 10:05:42;;;;;;;;;;;;;;;10.65;100.00;101241.81;2609650;36;20046;-55
2022/04/25 10:08:11;;;;;;;;;;;;;;;10.44;100.00;101248.00;2610385;31;19954;-54
2022/04/25 10:10:42;;;;;;;;;;;;;;;10.25;100.00;101250.44;2611759;36;19954;-52
2022/04/25 10:13:12;;;;;;;;;;;;;;;10.05;100.00;101250.19;2612567;36;19951;-53
2022/04/25 10:15:40;;;;;;;;;;;;;;;9.75;100.00;101258.88;2611585;36;20532;-55
2022/04/25 10:18:09;;;;;;;;;;;;;;;9.76;100.00;101258.75;2611178;36;20553;-54
2022/04/25 10:20:37;;;;;;;;;;;;;;;9.89;100.00;101261.31;2610538;36;19950;-52
2022/04/25 10:23:09;;;;;;;;;;;;;;;10.28;100.00;101250.19;2612885;36;20427;-52
2022/04/25 10:25:38;;;;;;;;;;;;;;;10.33;100.00;101256.03;2612130;31;20050;-54
2022/04/25 10:28:08;;;;;;;;;;;;;;;10.21;100.00;101254.34;2611524;36;19950;-53
2022/04/25 10:30:37;;;;;;;;;;;;;;;10.45;100.00;101263.16;2612510;36;20105;-52
2022/04/25 10:33:16;;;;;;;;;;;;;;;10.45;100.00;101263.16;2612085;36;20034;-53
2022/04/25 10:35:45;;;;;;;;;;;;;;;10.62;100.00;101263.59;2612395;36;19965;-56
2022/04/25 10:38:47;;;;;;;;;;;;;;;10.35;100.00;101264.91;2611213;36;19962;-55
2022/04/25 10:44:15;;;;;;;;;;;;;;;10.41;100.00;101276.97;2604915;31;19962;-50
2022/04/25 10:46:59;;;;;;;;;;;;;;;10.31;100.00;101276.84;2609497;36;20386;-51
2022/04/25 10:49:32;;;;;;;;;;;;;;;10.36;100.00;101279.19;2607534;36;19950;-54
2022/04/25 10:52:01;;;;;;;;;;;;;;;10.42;100.00;101284.06;2610214;36;19946;-56
2022/04/25 10:54:30;;;;;;;;;;;;;;;10.14;100.00;101281.75;2613047;36;20449;-54
2022/04/25 10:57:18;;;;;;;;;;;;;;;9.98;100.00;101281.25;2611311;36;20823;-55
2022/04/25 10:59:47;;;;;;;;;;;;;;;10.17;100.00;101276.13;2605755;31;20519;-55
2022/04/25 11:02:23;;;;;;;;;;;;;;;10.17;100.00;101268.06;2605480;36;20116;-51
2022/04/25 11:05:25;;;;;;;;;;;;;;;10.22;100.00;101272.19;2613131;36;19947;-51
2022/04/25 11:07:53;;;;;;;;;;;;;;;10.22;100.00;101273.06;2612893;36;21305;-56
2022/04/25 11:10:36;;;;;;;;;;;;;;;10.27;100.00;101275.38;2613001;31;20744;-52
2022/04/25 11:13:07;;;;;;;;;;;;;;;10.20;100.00;101284.91;2612572;36;20009;-56
2022/04/25 11:15:42;;;;;;;;;;;;;;;10.10;100.00;101290.16;2611364;36;19950;-55
2022/04/25 11:18:30;;;;;;;;;;;;;;;9.94;100.00;101294.09;2611463;36;19947;-54
2022/04/25 11:20:59;;;;;;;;;;;;;;;10.26;100.00;101289.78;2611996;36;19947;-56
2022/04/25 11:23:29;;;;;;;;;;;;;;;10.30;100.00;101292.09;2611820;36;19974;-53
2022/04/25 11:25:59;;;;;;;;;;;;;;;10.17;100.00;101297.66;2612029;36;19951;-56
2022/04/25 11:28:30;;;;;;;;;;;;;;;9.99;100.00;101299.94;2613060;31;19950;-55
2022/04/25 11:31:19;;;;;;;;;;;;;;;9.99;100.00;101304.47;2612468;36;20034;-54
2022/04/25 11:33:48;;;;;;;;;;;;;;;10.04;100.00;101306.78;2612882;36;20081;-55
2022/04/25 11:36:16;;;;;;;;;;;;;;;9.78;100.00;101315.94;2612288;36;20045;-56
2022/04/25 11:41:26;;;;;;;;;;;;;;;9.74;100.00;101305.56;2612687;36;19951;-51
2022/04/25 11:43:57;;;;;;;;;;;;;;;9.88;100.00;101312.53;2612252;36;19990;-53
2022/04/25 11:46:26;;;;;;;;;;;;;;;9.96;100.00;101320.84;2611788;31;20417;-55
2022/04/25 11:48:54;;;;;;;;;;;;;;;9.84;100.00;101324.53;2611458;36;19989;-50
2022/04/25 11:51:26;;;;;;;;;;;;;;;9.90;100.00;101321.34;2610743;36;20507;-51
2022/04/25 11:53:54;;;;;;;;;;;;;;;9.80;100.00;101322.06;2612591;36;20045;-54
2022/04/25 11:56:23;;;;;;;;;;;;;;;9.75;100.00;101328.78;2612386;36;19976;-54
2022/04/25 11:58:51;;;;;;;;;;;;;;;9.56;100.00;101323.97;2612540;36;20034;-51
2022/04/25 12:01:35;;;;;;;;;;;;;;;9.43;100.00;101335.63;2623454;31;20442;-54
2022/04/25 12:04:19;;;;;;;;;;;;;;;9.64;100.00;101337.66;2612053;36;19973;-54
2022/04/25 12:06:50;;;;;;;;;;;;;;;9.70;100.00;101334.50;2612288;36;19950;-54
2022/04/25 12:17:20;;;;;;;;;;;;;;;9.72;100.00;101343.31;2611117;36;20423;-54
2022/04/25 12:20:02;;;;;;;;;;;;;;;9.70;100.00;101347.06;2611234;36;20546;-50
2022/04/25 12:22:33;;;;;;;;;;;;;;;9.94;100.00;101337.09;2612039;36;19947;-57
2022/04/25 12:25:16;;;;;;;;;;;;;;;10.05;100.00;101346.16;2611037;36;19981;-53
2022/04/25 12:27:59;;;;;;;;;;;;;;;10.11;100.00;101351.91;2611549;36;20105;-52
2022/04/25 12:30:28;;;;;;;;;;;;;;;10.20;100.00;101357.53;2610714;36;19953;-52
2022/04/25 12:33:07;;;;;;;;;;;;;;;9.99;100.00;101347.50;2611092;36;19950;-53
2022/04/25 12:35:38;;;;;;;;;;;;;;;10.00;100.00;101350.06;2609440;36;20435;-55
2022/04/25 12:38:06;;;;;;;;;;;;;;;9.82;100.00;101363.13;2611705;36;20073;-51
2022/04/25 12:40:35;;;;;;;;;;;;;;;9.78;100.00;101367.03;2610701;36;19957;-54
2022/04/25 12:43:03;;;;;;;;;;;;;;;9.97;100.00;101352.16;2610423;31;20057;-53
2022/04/25 12:45:50;;;;;;;;;;;;;;;10.11;100.00;101357.28;2610906;36;20101;-53
2022/04/25 12:48:18;;;;;;;;;;;;;;;10.02;100.00;101355.31;2610851;36;19946;-53
2022/04/25 12:50:49;;;;;;;;;;;;;;;10.19;100.00;101364.78;2610681;36;19957;-52
2022/04/25 12:53:17;;;;;;;;;;;;;;;10.16;100.00;101365.88;2611317;36;19981;-52
2022/04/25 12:55:46;;;;;;;;;;;;;;;10.01;100.00;101364.34;2612797;36;19969;-53
2022/04/25 12:58:14;;;;;;;;;;;;;;;10.16;100.00;101371.25;2612457;36;19961;-52
2022/04/25 13:00:42;;;;;;;;;;;;;;;9.89;100.00;101359.94;2613500;36;20070;-50
2022/04/25 13:03:12;;;;;;;;;;;;;;;10.26;100.00;101366.00;2611891;36;20037;-56
2022/04/25 13:05:40;;;;;;;;;;;;;;;10.22;100.00;101356.44;2613286;36;19946;-57
2022/04/25 13:08:11;;;;;;;;;;;;;;;10.27;100.00;101366.84;2608684;36;20034;-54
2022/04/25 13:10:39;;;;;;;;;;;;;;;10.20;100.00;101365.63;2613554;31;20041;-51
2022/04/25 13:13:07;;;;;;;;;;;;;;;10.32;100.00;101370.00;2610842;36;19960;-54
2022/04/25 13:15:38;;;;;;;;;;;;;;;10.34;100.00;101363.56;2606568;36;20019;-51
2022/04/25 13:18:06;;;;;;;;;;;;;;;10.14;100.00;101380.41;2612491;31;20000;-51
2022/04/25 13:20:35;;;;;;;;;;;;;;;9.94;100.00;101373.91;2612454;36;19950;-55
2022/04/25 13:23:03;;;;;;;;;;;;;;;9.88;100.00;101379.75;2610836;36;19954;-50
2022/04/25 13:25:33;;;;;;;;;;;;;;;9.96;100.00;101374.63;2611945;36;20415;-51
2022/04/25 13:28:01;;;;;;;;;;;;;;;10.11;100.00;101381.50;2612217;36;20101;-52
2022/04/25 13:30:29;;;;;;;;;;;;;;;9.98;100.00;101389.69;2611323;36;20324;-50
2022/04/25 13:32:57;;;;;;;;;;;;;;;9.97;100.00;101376.34;2612457;36;19981;-55
2022/04/25 13:35:26;;;;;;;;;;;;;;;10.02;100.00;101381.38;2613044;36;19981;-51